sensor_id;sensor_type;location;lat;lon;timestamp;P1;durP1;ratioP1;P2;durP2;ratioP2
47367;SDS011;34646;47.964;7.982;2023-11-21T00:07:04;7.50;;;1.20;;
47367;SDS011;34646;47.964;7.982;2023-11-21T00:13:06;4.80;;;1.42;;
47367;SDS011;34646;47.964;7.982;2023-11-21T00:19:07;2.72;;;1.30;;
47367;SDS011;34646;47.964;7.982;2023-11-21T00:25:08;3.23;;;1.30;;
47367;SDS011;34646;47.964;7.982;2023-11-21T00:31:09;4.83;;;1.33;;
47367;SDS011;34646;47.964;7.982;2023-11-21T00:37:10;3.90;;;1.70;;
47367;SDS011;34646;47.964;7.982;2023-11-21T00:49:12;2.72;;;1.00;;
47367;SDS011;34646;47.964;7.982;2023-11-21T00:55:13;3.80;;;1.47;;
47367;SDS011;34646;47.964;7.982;2023-11-21T01:01:13;4.10;;;1.37;;
47367;SDS011;34646;47.964;7.982;2023-11-21T01:07:14;3.63;;;1.60;;
47367;SDS011;34646;47.964;7.982;2023-11-21T01:13:15;3.67;;;1.17;;
47367;SDS011;34646;47.964;7.982;2023-11-21T01:19:17;4.75;;;1.38;;
47367;SDS011;34646;47.964;7.982;2023-11-21T01:25:17;4.47;;;1.37;;
47367;SDS011;34646;47.964;7.982;2023-11-21T01:31:18;3.90;;;1.23;;
47367;SDS011;34646;47.964;7.982;2023-11-21T01:37:20;3.58;;;1.10;;
47367;SDS011;34646;47.964;7.982;2023-11-21T01:43:21;3.47;;;1.33;;
47367;SDS011;34646;47.964;7.982;2023-11-21T01:49:22;3.83;;;1.30;;
47367;SDS011;34646;47.964;7.982;2023-11-21T01:55:23;2.53;;;0.90;;
47367;SDS011;34646;47.964;7.982;2023-11-21T02:01:24;4.23;;;1.60;;
47367;SDS011;34646;47.964;7.982;2023-11-21T02:07:27;2.95;;;1.00;;
47367;SDS011;34646;47.964;7.982;2023-11-21T02:13:27;3.47;;;1.10;;
47367;SDS011;34646;47.964;7.982;2023-11-21T02:19:28;2.83;;;0.90;;
47367;SDS011;34646;47.964;7.982;2023-11-21T02:25:32;2.15;;;1.13;;
47367;SDS011;34646;47.964;7.982;2023-11-21T02:31:33;3.45;;;1.23;;
47367;SDS011;34646;47.964;7.982;2023-11-21T02:43:35;3.33;;;1.00;;
47367;SDS011;34646;47.964;7.982;2023-11-21T02:49:38;2.90;;;1.00;;
47367;SDS011;34646;47.964;7.982;2023-11-21T02:55:39;3.23;;;1.00;;
47367;SDS011;34646;47.964;7.982;2023-11-21T03:01:39;4.70;;;1.60;;
47367;SDS011;34646;47.964;7.982;2023-11-21T03:07:40;2.53;;;0.90;;
47367;SDS011;34646;47.964;7.982;2023-11-21T03:13:41;2.40;;;1.00;;
47367;SDS011;34646;47.964;7.982;2023-11-21T03:19:42;2.08;;;0.90;;
47367;SDS011;34646;47.964;7.982;2023-11-21T03:25:42;3.63;;;1.20;;
47367;SDS011;34646;47.964;7.982;2023-11-21T03:31:44;1.25;;;0.68;;
47367;SDS011;34646;47.964;7.982;2023-11-21T03:37:44;2.20;;;0.80;;
47367;SDS011;34646;47.964;7.982;2023-11-21T03:43:45;4.23;;;1.20;;
47367;SDS011;34646;47.964;7.982;2023-11-21T03:49:48;2.67;;;1.10;;
47367;SDS011;34646;47.964;7.982;2023-11-21T03:55:50;5.18;;;1.73;;
47367;SDS011;34646;47.964;7.982;2023-11-21T04:01:51;3.10;;;1.20;;
47367;SDS011;34646;47.964;7.982;2023-11-21T04:07:51;2.03;;;0.83;;
47367;SDS011;34646;47.964;7.982;2023-11-21T04:13:52;3.63;;;1.00;;
47367;SDS011;34646;47.964;7.982;2023-11-21T04:19:53;1.77;;;0.73;;
47367;SDS011;34646;47.964;7.982;2023-11-21T04:25:54;3.37;;;1.27;;
47367;SDS011;34646;47.964;7.982;2023-11-21T04:31:57;3.30;;;1.00;;
47367;SDS011;34646;47.964;7.982;2023-11-21T04:37:57;1.70;;;0.70;;
47367;SDS011;34646;47.964;7.982;2023-11-21T04:43:59;1.85;;;0.80;;
47367;SDS011;34646;47.964;7.982;2023-11-21T04:50:02;1.92;;;0.90;;
47367;SDS011;34646;47.964;7.982;2023-11-21T05:02:05;3.75;;;0.80;;
47367;SDS011;34646;47.964;7.982;2023-11-21T05:08:05;3.10;;;1.00;;
47367;SDS011;34646;47.964;7.982;2023-11-21T05:14:06;3.60;;;1.00;;
47367;SDS011;34646;47.964;7.982;2023-11-21T05:20:09;1.80;;;0.70;;
47367;SDS011;34646;47.964;7.982;2023-11-21T05:26:11;1.77;;;0.70;;
47367;SDS011;34646;47.964;7.982;2023-11-21T05:32:12;3.13;;;0.80;;
47367;SDS011;34646;47.964;7.982;2023-11-21T05:38:13;3.60;;;1.00;;
47367;SDS011;34646;47.964;7.982;2023-11-21T05:44:13;2.97;;;1.20;;
47367;SDS011;34646;47.964;7.982;2023-11-21T05:50:15;6.60;;;1.70;;
47367;SDS011;34646;47.964;7.982;2023-11-21T05:56:16;2.63;;;1.38;;
47367;SDS011;34646;47.964;7.982;2023-11-21T06:02:18;4.13;;;1.17;;
47367;SDS011;34646;47.964;7.982;2023-11-21T06:08:19;3.60;;;1.17;;
47367;SDS011;34646;47.964;7.982;2023-11-21T06:14:19;2.73;;;1.33;;
47367;SDS011;34646;47.964;7.982;2023-11-21T06:20:22;4.35;;;1.73;;
47367;SDS011;34646;47.964;7.982;2023-11-21T06:26:22;2.30;;;1.00;;
47367;SDS011;34646;47.964;7.982;2023-11-21T06:32:24;4.28;;;1.25;;
47367;SDS011;34646;47.964;7.982;2023-11-21T06:38:26;4.28;;;1.20;;
47367;SDS011;34646;47.964;7.982;2023-11-21T06:44:30;3.97;;;1.05;;
47367;SDS011;34646;47.964;7.982;2023-11-21T06:50:30;2.53;;;1.30;;
47367;SDS011;34646;47.964;7.982;2023-11-21T06:56:31;3.07;;;1.40;;
47367;SDS011;34646;47.964;7.982;2023-11-21T07:08:33;3.17;;;1.27;;
47367;SDS011;34646;47.964;7.982;2023-11-21T07:14:34;2.58;;;1.00;;
47367;SDS011;34646;47.964;7.982;2023-11-21T07:20:35;2.13;;;1.33;;
47367;SDS011;34646;47.964;7.982;2023-11-21T07:26:37;3.72;;;1.10;;
47367;SDS011;34646;47.964;7.982;2023-11-21T07:32:37;3.10;;;1.00;;
47367;SDS011;34646;47.964;7.982;2023-11-21T07:38:39;2.47;;;1.00;;
47367;SDS011;34646;47.964;7.982;2023-11-21T07:44:40;2.80;;;1.00;;
47367;SDS011;34646;47.964;7.982;2023-11-21T07:50:41;3.07;;;1.07;;
47367;SDS011;34646;47.964;7.982;2023-11-21T07:56:41;3.20;;;1.00;;
47367;SDS011;34646;47.964;7.982;2023-11-21T08:02:42;1.30;;;0.90;;
47367;SDS011;34646;47.964;7.982;2023-11-21T08:08:45;3.17;;;1.25;;
47367;SDS011;34646;47.964;7.982;2023-11-21T08:20:48;1.98;;;1.10;;
47367;SDS011;34646;47.964;7.982;2023-11-21T08:26:48;3.10;;;1.00;;
47367;SDS011;34646;47.964;7.982;2023-11-21T08:32:50;2.03;;;1.00;;
47367;SDS011;34646;47.964;7.982;2023-11-21T08:38:53;2.05;;;0.90;;
47367;SDS011;34646;47.964;7.982;2023-11-21T08:44:54;3.23;;;1.10;;
47367;SDS011;34646;47.964;7.982;2023-11-21T08:50:57;2.50;;;0.80;;
47367;SDS011;34646;47.964;7.982;2023-11-21T08:57:00;2.25;;;0.90;;
47367;SDS011;34646;47.964;7.982;2023-11-21T09:03:01;2.97;;;1.05;;
47367;SDS011;34646;47.964;7.982;2023-11-21T09:09:03;1.77;;;1.10;;
47367;SDS011;34646;47.964;7.982;2023-11-21T09:15:06;2.40;;;1.00;;
47367;SDS011;34646;47.964;7.982;2023-11-21T09:21:07;2.35;;;0.82;;
47367;SDS011;34646;47.964;7.982;2023-11-21T09:27:09;2.25;;;1.00;;
47367;SDS011;34646;47.964;7.982;2023-11-21T09:33:11;1.48;;;0.88;;
47367;SDS011;34646;47.964;7.982;2023-11-21T09:39:12;1.90;;;0.80;;
47367;SDS011;34646;47.964;7.982;2023-11-21T09:51:21;1.23;;;0.70;;
47367;SDS011;34646;47.964;7.982;2023-11-21T09:57:27;2.10;;;0.88;;
47367;SDS011;34646;47.964;7.982;2023-11-21T10:03:28;1.25;;;0.88;;
47367;SDS011;34646;47.964;7.982;2023-11-21T10:09:30;1.88;;;0.80;;
47367;SDS011;34646;47.964;7.982;2023-11-21T10:15:35;2.03;;;0.82;;
47367;SDS011;34646;47.964;7.982;2023-11-21T10:21:39;3.00;;;1.20;;
47367;SDS011;34646;47.964;7.982;2023-11-21T10:27:40;1.33;;;0.68;;
47367;SDS011;34646;47.964;7.982;2023-11-21T10:33:41;1.83;;;0.68;;
47367;SDS011;34646;47.964;7.982;2023-11-21T10:39:43;2.35;;;1.10;;
47367;SDS011;34646;47.964;7.982;2023-11-21T10:45:44;2.30;;;0.63;;
47367;SDS011;34646;47.964;7.982;2023-11-21T10:51:45;3.88;;;0.80;;
47367;SDS011;34646;47.964;7.982;2023-11-21T10:57:46;3.33;;;0.97;;
47367;SDS011;34646;47.964;7.982;2023-11-21T11:03:49;4.75;;;1.20;;
47367;SDS011;34646;47.964;7.982;2023-11-21T11:09:54;1.20;;;0.65;;
47367;SDS011;34646;47.964;7.982;2023-11-21T11:15:57;1.15;;;0.65;;
47367;SDS011;34646;47.964;7.982;2023-11-21T11:28:20;1.63;;;0.90;;
47367;SDS011;34646;47.964;7.982;2023-11-21T11:34:24;1.15;;;0.65;;
47367;SDS011;34646;47.964;7.982;2023-11-21T11:40:40;1.40;;;0.80;;
47367;SDS011;34646;47.964;7.982;2023-11-21T11:46:45;3.40;;;0.85;;
47367;SDS011;34646;47.964;7.982;2023-11-21T11:52:47;4.53;;;0.60;;
47367;SDS011;34646;47.964;7.982;2023-11-21T11:58:50;4.95;;;0.65;;
47367;SDS011;34646;47.964;7.982;2023-11-21T12:04:55;2.05;;;0.90;;
47367;SDS011;34646;47.964;7.982;2023-11-21T12:10:56;2.40;;;0.80;;
47367;SDS011;34646;47.964;7.982;2023-11-21T12:16:57;1.93;;;0.60;;
47367;SDS011;34646;47.964;7.982;2023-11-21T12:22:59;2.20;;;0.60;;
47367;SDS011;34646;47.964;7.982;2023-11-21T12:29:00;2.17;;;0.80;;
47367;SDS011;34646;47.964;7.982;2023-11-21T12:35:03;2.58;;;0.70;;
47367;SDS011;34646;47.964;7.982;2023-11-21T12:41:06;2.88;;;0.70;;
47367;SDS011;34646;47.964;7.982;2023-11-21T12:47:06;1.23;;;0.70;;
47367;SDS011;34646;47.964;7.982;2023-11-21T12:53:09;1.93;;;0.53;;
47367;SDS011;34646;47.964;7.982;2023-11-21T12:59:12;4.57;;;0.80;;
47367;SDS011;34646;47.964;7.982;2023-11-21T13:05:23;5.13;;;0.60;;
47367;SDS011;34646;47.964;7.982;2023-11-21T13:11:34;1.83;;;0.60;;
47367;SDS011;34646;47.964;7.982;2023-11-21T13:17:36;1.33;;;0.68;;
47367;SDS011;34646;47.964;7.982;2023-11-21T13:23:37;2.50;;;0.63;;
47367;SDS011;34646;47.964;7.982;2023-11-21T13:29:38;1.17;;;0.60;;
47367;SDS011;34646;47.964;7.982;2023-11-21T13:35:38;3.03;;;0.70;;
47367;SDS011;34646;47.964;7.982;2023-11-21T13:41:43;4.40;;;0.68;;
47367;SDS011;34646;47.964;7.982;2023-11-21T13:47:48;1.83;;;0.70;;
47367;SDS011;34646;47.964;7.982;2023-11-21T13:53:51;2.08;;;0.60;;
47367;SDS011;34646;47.964;7.982;2023-11-21T13:59:53;2.85;;;0.70;;
47367;SDS011;34646;47.964;7.982;2023-11-21T14:05:53;7.20;;;0.83;;
47367;SDS011;34646;47.964;7.982;2023-11-21T14:11:57;1.60;;;0.50;;
47367;SDS011;34646;47.964;7.982;2023-11-21T14:17:57;1.95;;;0.55;;
47367;SDS011;34646;47.964;7.982;2023-11-21T14:23:59;2.20;;;1.33;;
47367;SDS011;34646;47.964;7.982;2023-11-21T14:30:00;6.07;;;1.73;;
47367;SDS011;34646;47.964;7.982;2023-11-21T14:36:02;3.70;;;1.63;;
47367;SDS011;34646;47.964;7.982;2023-11-21T14:42:03;16.03;;;1.47;;
47367;SDS011;34646;47.964;7.982;2023-11-21T14:54:05;17.80;;;3.03;;
47367;SDS011;34646;47.964;7.982;2023-11-21T15:00:10;16.73;;;3.13;;
47367;SDS011;34646;47.964;7.982;2023-11-21T15:06:31;28.85;;;4.00;;
47367;SDS011;34646;47.964;7.982;2023-11-21T15:12:32;25.20;;;6.20;;
47367;SDS011;34646;47.964;7.982;2023-11-21T15:18:34;30.02;;;6.32;;
47367;SDS011;34646;47.964;7.982;2023-11-21T15:24:35;22.20;;;7.50;;
47367;SDS011;34646;47.964;7.982;2023-11-21T15:30:36;33.67;;;7.33;;
47367;SDS011;34646;47.964;7.982;2023-11-21T15:36:37;28.83;;;7.67;;
47367;SDS011;34646;47.964;7.982;2023-11-21T15:42:38;34.10;;;7.20;;
47367;SDS011;34646;47.964;7.982;2023-11-21T15:48:39;18.50;;;7.15;;
47367;SDS011;34646;47.964;7.982;2023-11-21T15:54:43;17.52;;;6.47;;
47367;SDS011;34646;47.964;7.982;2023-11-21T16:00:46;21.92;;;6.57;;
47367;SDS011;34646;47.964;7.982;2023-11-21T16:06:47;26.23;;;6.70;;
47367;SDS011;34646;47.964;7.982;2023-11-21T16:12:48;19.52;;;7.05;;
47367;SDS011;34646;47.964;7.982;2023-11-21T16:18:48;16.83;;;6.30;;
47367;SDS011;34646;47.964;7.982;2023-11-21T16:24:49;17.80;;;7.07;;
47367;SDS011;34646;47.964;7.982;2023-11-21T16:30:50;26.50;;;7.43;;
47367;SDS011;34646;47.964;7.982;2023-11-21T16:36:50;18.03;;;6.23;;
47367;SDS011;34646;47.964;7.982;2023-11-21T16:42:51;18.87;;;6.17;;
47367;SDS011;34646;47.964;7.982;2023-11-21T16:48:52;17.57;;;6.40;;
47367;SDS011;34646;47.964;7.982;2023-11-21T16:54:53;16.20;;;5.70;;
47367;SDS011;34646;47.964;7.982;2023-11-21T17:00:54;22.15;;;6.40;;
47367;SDS011;34646;47.964;7.982;2023-11-21T17:06:54;17.17;;;6.17;;
47367;SDS011;34646;47.964;7.982;2023-11-21T17:12:55;15.13;;;6.20;;
47367;SDS011;34646;47.964;7.982;2023-11-21T17:18:56;17.80;;;5.53;;
47367;SDS011;34646;47.964;7.982;2023-11-21T17:24:57;16.98;;;5.50;;
47367;SDS011;34646;47.964;7.982;2023-11-21T17:30:59;12.98;;;5.20;;
47367;SDS011;34646;47.964;7.982;2023-11-21T17:36:59;10.13;;;4.67;;
47367;SDS011;34646;47.964;7.982;2023-11-21T17:43:02;16.65;;;4.75;;
47367;SDS011;34646;47.964;7.982;2023-11-21T17:49:03;11.80;;;5.33;;
47367;SDS011;34646;47.964;7.982;2023-11-21T17:55:04;9.87;;;4.17;;
47367;SDS011;34646;47.964;7.982;2023-11-21T18:01:05;12.45;;;4.75;;
47367;SDS011;34646;47.964;7.982;2023-11-21T18:07:06;12.93;;;3.93;;
47367;SDS011;34646;47.964;7.982;2023-11-21T18:13:06;14.07;;;3.87;;
47367;SDS011;34646;47.964;7.982;2023-11-21T18:19:07;12.47;;;4.07;;
47367;SDS011;34646;47.964;7.982;2023-11-21T18:25:08;12.65;;;3.78;;
47367;SDS011;34646;47.964;7.982;2023-11-21T18:31:09;10.53;;;3.93;;
47367;SDS011;34646;47.964;7.982;2023-11-21T18:37:10;8.70;;;4.53;;
47367;SDS011;34646;47.964;7.982;2023-11-21T18:43:10;10.73;;;3.80;;
47367;SDS011;34646;47.964;7.982;2023-11-21T18:55:12;13.48;;;3.28;;
47367;SDS011;34646;47.964;7.982;2023-11-21T19:01:13;13.60;;;3.20;;
47367;SDS011;34646;47.964;7.982;2023-11-21T19:07:27;10.25;;;3.42;;
47367;SDS011;34646;47.964;7.982;2023-11-21T19:13:32;8.82;;;3.30;;
47367;SDS011;34646;47.964;7.982;2023-11-21T19:19:32;7.43;;;3.40;;
47367;SDS011;34646;47.964;7.982;2023-11-21T19:25:34;12.20;;;3.38;;
47367;SDS011;34646;47.964;7.982;2023-11-21T19:31:35;10.00;;;3.45;;
47367;SDS011;34646;47.964;7.982;2023-11-21T19:37:36;9.17;;;3.50;;
47367;SDS011;34646;47.964;7.982;2023-11-21T19:43:37;6.87;;;3.07;;
47367;SDS011;34646;47.964;7.982;2023-11-21T19:49:37;13.43;;;3.43;;
47367;SDS011;34646;47.964;7.982;2023-11-21T19:55:38;8.97;;;2.67;;
47367;SDS011;34646;47.964;7.982;2023-11-21T20:01:39;8.30;;;2.80;;
47367;SDS011;34646;47.964;7.982;2023-11-21T20:07:40;17.60;;;3.97;;
47367;SDS011;34646;47.964;7.982;2023-11-21T20:13:41;17.95;;;3.45;;
47367;SDS011;34646;47.964;7.982;2023-11-21T20:19:42;13.10;;;3.13;;
47367;SDS011;34646;47.964;7.982;2023-11-21T20:25:43;6.33;;;2.77;;
47367;SDS011;34646;47.964;7.982;2023-11-21T20:31:44;15.60;;;3.07;;
47367;SDS011;34646;47.964;7.982;2023-11-21T20:37:44;19.07;;;3.47;;
47367;SDS011;34646;47.964;7.982;2023-11-21T20:43:46;10.13;;;2.58;;
47367;SDS011;34646;47.964;7.982;2023-11-21T20:49:47;11.33;;;2.97;;
47367;SDS011;34646;47.964;7.982;2023-11-21T20:55:47;21.50;;;2.83;;
47367;SDS011;34646;47.964;7.982;2023-11-21T21:01:49;9.30;;;2.63;;
47367;SDS011;34646;47.964;7.982;2023-11-21T21:07:50;10.63;;;2.83;;
47367;SDS011;34646;47.964;7.982;2023-11-21T21:13:51;9.77;;;2.63;;
47367;SDS011;34646;47.964;7.982;2023-11-21T21:19:55;5.45;;;2.97;;
47367;SDS011;34646;47.964;7.982;2023-11-21T21:25:56;7.67;;;2.40;;
47367;SDS011;34646;47.964;7.982;2023-11-21T21:31:56;7.00;;;3.20;;
47367;SDS011;34646;47.964;7.982;2023-11-21T21:37:57;5.63;;;2.30;;
47367;SDS011;34646;47.964;7.982;2023-11-21T21:43:58;3.90;;;2.07;;
47367;SDS011;34646;47.964;7.982;2023-11-21T21:49:59;4.37;;;1.93;;
47367;SDS011;34646;47.964;7.982;2023-11-21T21:55:59;5.57;;;2.40;;
47367;SDS011;34646;47.964;7.982;2023-11-21T22:02:00;4.27;;;2.20;;
47367;SDS011;34646;47.964;7.982;2023-11-21T22:08:00;6.77;;;2.27;;
47367;SDS011;34646;47.964;7.982;2023-11-21T22:14:01;7.70;;;2.50;;
47367;SDS011;34646;47.964;7.982;2023-11-21T22:20:03;10.40;;;3.15;;
47367;SDS011;34646;47.964;7.982;2023-11-21T22:26:05;7.88;;;1.80;;
47367;SDS011;34646;47.964;7.982;2023-11-21T22:32:07;7.72;;;2.38;;
47367;SDS011;34646;47.964;7.982;2023-11-21T22:38:08;5.10;;;2.40;;
47367;SDS011;34646;47.964;7.982;2023-11-21T22:44:14;6.35;;;2.13;;
47367;SDS011;34646;47.964;7.982;2023-11-21T22:50:14;6.60;;;2.27;;
47367;SDS011;34646;47.964;7.982;2023-11-21T22:56:15;11.00;;;2.20;;
47367;SDS011;34646;47.964;7.982;2023-11-21T23:02:17;5.93;;;2.17;;
47367;SDS011;34646;47.964;7.982;2023-11-21T23:08:18;8.70;;;2.10;;
47367;SDS011;34646;47.964;7.982;2023-11-21T23:14:19;3.87;;;1.60;;
47367;SDS011;34646;47.964;7.982;2023-11-21T23:20:20;6.30;;;2.10;;
47367;SDS011;34646;47.964;7.982;2023-11-21T23:26:21;6.55;;;2.15;;
47367;SDS011;34646;47.964;7.982;2023-11-21T23:32:22;4.00;;;1.93;;
47367;SDS011;34646;47.964;7.982;2023-11-21T23:38:22;4.03;;;1.73;;
47367;SDS011;34646;47.964;7.982;2023-11-21T23:44:23;5.70;;;1.83;;
47367;SDS011;34646;47.964;7.982;2023-11-21T23:50:27;4.60;;;1.73;;
